Tijuana, México

5:06 AM PDT en Agosto 28, 2016 (GMT -0700)
Tijuana BC-CMOE-Proteccion Civil | | Change Station

Alt 476 ft 32.53 °N, 116.99 °W | Updated 11 minutes ago

Overcast
Nublado
64.5 ° F
Sensación térmica 64.5 ° F
N
0.0
Viento Variable Viento desde Norte

Hoy
Alta -- | Baja -- ° F
--% Posibilidad de precipitaciones
Ayer
Alta -- | Baja -- ° F
Precip. -- pul
Presión 29.98 pul
Visibilidad 10.0 Millas
Nubes Nublado 1400 ft
Punto de rocío 61 ° F
Humedad 87%
Precipitaciones 0.00 pul
Espesor de la nieve No disponible.
6:20 AM 7:16 PM
Creciente menguante, 16% visible
METAR KSDM 281153Z AUTO 00000KT 10SM OVC014 17/15 A2999 RMK AO2 SLP150 T01720150 10183 20167 55002
Presión 29.98 pul
Visibilidad 10.0 Millas
Nubes Nublado 1400 ft
Punto de rocío 61 ° F
Humedad 87%
Precipitaciones 0.00 pul
Espesor de la nieve No disponible.
6:20 AM 7:16 PM
Creciente menguante, 16% visible
METAR KSDM 281153Z AUTO 00000KT 10SM OVC014 17/15 A2999 RMK AO2 SLP150 T01720150 10183 20167 55002

10-Day Weather Forecast

Almanac

Astronomía

Aug. 28, 2016 Salida Puesta
Hora real
Crepúsculo civil
Crepúsculo náutico
Crepúsculo astronómico
Luna
Horas de luz
Horas de luz
Tomorrow will be .
, % of the Moon is Illuminated

Extremos de hoy

Máximos del país Bajas del país

Community

WunderPhotos

Upload Photos

1,935,552 ¡fotos cargadas!

WunderBlog® & News

Nearby

Calidad del aire

  Calidad del aire Índice AQ Contaminante
Not available.

Grosos de nieve

Estación Profundido Altura

Actividad de terremotos

Ciudad Distance Mag. Tiempo y dato
Magnitud mínima muestra es 2,5.

Temperaturas de aguas costeras

Lugar Temperatura

Stations

Estaciones meteorológicas cercanas

Ubicación de la estación Temp. Vientos helados Punto de rocío Humedad Viento Precip. Alt Actualizado Tipo